createdAt,value
2017-12-15T00:01:26.178Z,1.90
2017-12-15T00:03:53.586Z,1.43
2017-12-15T00:06:21.801Z,1.33
2017-12-15T00:08:49.288Z,0.60
2017-12-15T00:11:16.695Z,1.50
2017-12-15T00:13:44.185Z,1.80
2017-12-15T00:16:11.646Z,1.10
2017-12-15T00:18:39.113Z,1.60
2017-12-15T00:21:06.535Z,1.60
2017-12-15T00:23:34.722Z,0.87
2017-12-15T00:26:02.215Z,1.03
2017-12-15T00:28:29.650Z,1.23
2017-12-15T00:30:57.108Z,0.80
2017-12-15T00:33:25.318Z,1.10
2017-12-15T00:35:52.778Z,0.80
2017-12-15T00:38:20.214Z,1.43
2017-12-15T00:40:47.697Z,2.40
2017-12-15T00:43:15.127Z,2.30
2017-12-15T00:45:42.613Z,1.83
2017-12-15T00:48:10.039Z,1.70
2017-12-15T00:50:38.254Z,1.47
2017-12-15T00:53:05.678Z,2.30
2017-12-15T00:55:33.985Z,1.67
2017-12-15T00:58:02.171Z,2.17
2017-12-15T01:00:29.598Z,1.70
2017-12-15T01:02:57.813Z,2.23
2017-12-15T01:05:25.233Z,3.27
2017-12-15T01:07:53.479Z,2.60
2017-12-15T01:10:20.902Z,1.50
2017-12-15T01:12:48.378Z,1.40
2017-12-15T01:15:15.803Z,2.00
2017-12-15T01:17:43.986Z,1.60
2017-12-15T01:20:11.409Z,1.90
2017-12-15T01:22:38.845Z,2.67
2017-12-15T01:25:06.301Z,2.20
2017-12-15T01:27:33.734Z,2.77
2017-12-15T01:30:01.223Z,2.90
2017-12-15T01:32:28.677Z,2.30
2017-12-15T01:34:56.142Z,2.10
2017-12-15T01:37:23.573Z,2.20
2017-12-15T01:39:51.070Z,1.20
2017-12-15T01:42:18.503Z,1.83
2017-12-15T01:44:45.934Z,2.40
2017-12-15T01:47:14.169Z,1.87
2017-12-15T01:49:41.590Z,1.83
2017-12-15T01:52:09.778Z,3.60
2017-12-15T01:54:37.261Z,3.00
2017-12-15T01:57:04.725Z,2.47
2017-12-15T01:59:32.197Z,1.97
2017-12-15T02:01:59.606Z,2.37
2017-12-15T02:04:27.833Z,1.87
2017-12-15T02:06:55.301Z,2.40
2017-12-15T02:09:22.755Z,2.00
2017-12-15T02:11:50.599Z,2.83
2017-12-15T02:14:18.102Z,2.60
2017-12-15T02:16:45.534Z,2.07
2017-12-15T02:19:12.963Z,2.57
2017-12-15T02:21:41.178Z,1.80
2017-12-15T02:24:08.607Z,2.40
2017-12-15T02:26:36.796Z,3.43
2017-12-15T02:29:04.285Z,2.10
2017-12-15T02:31:31.737Z,2.87
2017-12-15T02:33:59.165Z,3.10
2017-12-15T02:36:27.357Z,3.00
2017-12-15T02:38:54.846Z,3.80
2017-12-15T02:41:22.277Z,2.97
2017-12-15T02:43:50.488Z,3.83
2017-12-15T02:46:17.909Z,3.27
2017-12-15T02:48:46.128Z,2.73
2017-12-15T02:51:13.543Z,3.00
2017-12-15T02:53:40.980Z,3.73
2017-12-15T02:56:08.474Z,2.67
2017-12-15T02:58:35.893Z,2.43
2017-12-15T03:01:03.321Z,2.60
2017-12-15T03:03:30.846Z,4.40
2017-12-15T03:05:59.042Z,4.50
2017-12-15T03:08:26.457Z,4.03
2017-12-15T03:10:53.878Z,5.07
2017-12-15T03:13:21.354Z,4.30
2017-12-15T03:15:48.809Z,6.03
2017-12-15T03:18:16.276Z,5.00
2017-12-15T03:20:43.736Z,3.93
2017-12-15T03:23:11.175Z,4.93
2017-12-15T03:25:38.582Z,4.53
2017-12-15T03:28:06.118Z,4.53
2017-12-15T03:30:33.559Z,3.57
2017-12-15T03:33:00.989Z,4.43
2017-12-15T03:35:29.226Z,3.53
2017-12-15T03:37:56.650Z,3.60
2017-12-15T03:40:24.125Z,4.67
2017-12-15T03:42:51.554Z,5.00
2017-12-15T03:45:19.733Z,3.83
2017-12-15T03:47:47.954Z,4.43
2017-12-15T03:50:15.382Z,3.90
2017-12-15T03:52:43.580Z,5.30
2017-12-15T03:55:11.064Z,3.50
2017-12-15T03:57:38.479Z,4.70
2017-12-15T04:00:06.674Z,4.00
2017-12-15T04:02:34.181Z,4.10
2017-12-15T04:05:01.609Z,5.00
2017-12-15T04:07:29.025Z,5.33
2017-12-15T04:09:57.240Z,3.33
2017-12-15T04:12:24.674Z,7.00
2017-12-15T04:14:52.898Z,3.93
2017-12-15T04:17:20.355Z,2.60
2017-12-15T04:19:47.813Z,4.63
2017-12-15T04:22:15.253Z,3.90
2017-12-15T04:24:42.678Z,3.63
2017-12-15T04:27:10.198Z,4.60
2017-12-15T04:29:37.632Z,2.80
2017-12-15T04:32:05.082Z,3.83
2017-12-15T04:34:33.302Z,3.70
2017-12-15T04:37:00.769Z,1.97
2017-12-15T04:39:28.226Z,2.80
2017-12-15T04:41:55.706Z,3.03
2017-12-15T04:44:23.151Z,3.03
2017-12-15T04:46:50.638Z,3.40
2017-12-15T04:49:18.190Z,3.43
2017-12-15T04:51:45.675Z,3.30
2017-12-15T04:54:13.090Z,3.40
2017-12-15T04:56:40.513Z,2.60
2017-12-15T04:59:08.738Z,3.20
2017-12-15T05:01:36.138Z,3.50
2017-12-15T05:04:03.651Z,3.10
2017-12-15T05:06:31.080Z,2.83
2017-12-15T05:08:59.267Z,2.73
2017-12-15T05:11:26.753Z,4.60
2017-12-15T05:13:54.227Z,3.77
2017-12-15T05:16:21.645Z,4.80
2017-12-15T05:18:49.142Z,2.70
2017-12-15T05:21:16.561Z,2.90
2017-12-15T05:23:44.754Z,2.83
2017-12-15T05:26:12.190Z,3.07
2017-12-15T05:28:40.387Z,2.33
2017-12-15T05:31:07.886Z,2.10
2017-12-15T05:33:35.322Z,2.30
2017-12-15T05:36:03.505Z,4.60
2017-12-15T05:38:30.922Z,3.07
2017-12-15T05:40:58.350Z,3.73
2017-12-15T05:43:25.769Z,2.97
2017-12-15T05:45:53.262Z,3.43
2017-12-15T05:48:20.687Z,3.57
2017-12-15T05:50:48.906Z,2.60
2017-12-15T05:53:16.330Z,2.20
2017-12-15T05:55:43.758Z,2.90
2017-12-15T05:58:11.174Z,4.47
2017-12-15T06:00:38.646Z,2.80
2017-12-15T06:03:06.102Z,3.63
2017-12-15T06:05:33.542Z,2.37
2017-12-15T06:08:01.058Z,3.67
2017-12-15T06:10:28.586Z,4.23
2017-12-15T06:12:56.013Z,3.07
2017-12-15T06:15:24.226Z,3.57
2017-12-15T06:17:51.686Z,2.80
2017-12-15T06:20:19.114Z,3.03
2017-12-15T06:22:47.343Z,3.53
2017-12-15T06:25:14.790Z,4.20
2017-12-15T06:27:42.265Z,3.90
2017-12-15T06:30:09.729Z,3.73
2017-12-15T06:32:37.141Z,3.20
2017-12-15T06:35:04.654Z,3.20
2017-12-15T06:37:32.099Z,3.83
2017-12-15T06:39:59.557Z,2.93
2017-12-15T06:42:27.112Z,3.40
2017-12-15T06:44:54.522Z,4.10
2017-12-15T06:47:21.951Z,2.60
2017-12-15T06:49:49.418Z,4.27
2017-12-15T06:52:16.837Z,3.70
2017-12-15T06:54:44.264Z,5.10
2017-12-15T06:57:12.605Z,4.30
2017-12-15T06:59:40.041Z,4.13
2017-12-15T07:02:07.534Z,2.70
2017-12-15T07:04:34.959Z,3.07
2017-12-15T07:07:03.961Z,3.23
2017-12-15T07:09:31.445Z,4.07
2017-12-15T07:11:58.874Z,4.60
2017-12-15T07:14:26.315Z,4.37
2017-12-15T07:16:53.837Z,5.20
2017-12-15T07:19:21.250Z,3.60
2017-12-15T07:21:49.442Z,4.37
2017-12-15T07:24:16.934Z,5.40
2017-12-15T07:26:44.402Z,3.93
2017-12-15T07:29:11.860Z,4.10
2017-12-15T07:31:39.338Z,5.03
2017-12-15T07:34:06.758Z,3.60
2017-12-15T07:36:34.241Z,4.40
2017-12-15T07:39:01.658Z,4.00
2017-12-15T07:41:29.875Z,4.83
2017-12-15T07:43:57.293Z,3.23
2017-12-15T07:46:25.489Z,2.30
2017-12-15T07:48:52.922Z,3.47
2017-12-15T07:51:20.352Z,3.13
2017-12-15T07:53:47.770Z,3.20
2017-12-15T07:56:15.209Z,3.97
2017-12-15T07:58:43.439Z,3.00
2017-12-15T08:01:10.896Z,3.30
2017-12-15T08:03:38.362Z,5.10
2017-12-15T08:06:05.786Z,4.80
2017-12-15T08:08:33.209Z,3.83
2017-12-15T08:11:00.646Z,4.47
2017-12-15T08:13:28.059Z,4.07
2017-12-15T08:15:56.285Z,3.83
2017-12-15T08:18:23.719Z,2.00
2017-12-15T08:20:51.156Z,4.27
2017-12-15T08:23:19.329Z,2.27
2017-12-15T08:25:47.574Z,2.27
2017-12-15T08:28:14.986Z,3.00
2017-12-15T08:30:42.491Z,3.33
2017-12-15T08:33:09.906Z,3.17
2017-12-15T08:35:38.103Z,3.33
2017-12-15T08:38:05.518Z,2.80
2017-12-15T08:40:32.941Z,3.70
2017-12-15T08:43:00.407Z,2.17
2017-12-15T08:45:27.826Z,3.80
2017-12-15T08:47:56.026Z,2.53
2017-12-15T08:50:23.454Z,3.60
2017-12-15T08:52:51.649Z,2.50
2017-12-15T08:55:19.150Z,2.80
2017-12-15T08:57:46.595Z,4.60
2017-12-15T09:00:14.070Z,2.67
2017-12-15T09:02:41.528Z,2.87
2017-12-15T09:05:08.942Z,3.67
2017-12-15T09:07:37.161Z,2.60
2017-12-15T09:10:04.598Z,3.50
2017-12-15T09:12:32.026Z,2.43
2017-12-15T09:14:59.553Z,2.30
2017-12-15T09:17:27.007Z,2.50
2017-12-15T09:19:54.422Z,2.90
2017-12-15T09:22:22.650Z,2.60
2017-12-15T09:24:50.098Z,3.20
2017-12-15T09:27:17.505Z,2.00
2017-12-15T09:29:45.031Z,2.20
2017-12-15T09:32:12.489Z,1.30
2017-12-15T09:34:39.910Z,1.67
2017-12-15T09:37:08.143Z,1.00
2017-12-15T09:39:35.582Z,2.07
2017-12-15T09:42:03.054Z,1.53
2017-12-15T09:44:30.486Z,2.10
2017-12-15T09:46:57.974Z,1.57
2017-12-15T09:49:25.412Z,1.40
2017-12-15T09:51:52.846Z,1.97
2017-12-15T09:54:20.358Z,2.57
2017-12-15T09:56:47.823Z,2.00
2017-12-15T09:59:15.288Z,1.03
2017-12-15T10:01:42.728Z,1.53
2017-12-15T10:04:10.137Z,1.20
2017-12-15T10:06:37.563Z,1.30
2017-12-15T10:09:05.028Z,2.37
2017-12-15T10:11:32.462Z,2.30
2017-12-15T10:13:59.887Z,1.80
2017-12-15T10:16:27.310Z,2.00
2017-12-15T10:18:54.756Z,2.90
2017-12-15T10:21:22.174Z,1.30
2017-12-15T10:23:49.698Z,2.37
2017-12-15T10:26:17.117Z,2.53
2017-12-15T10:28:45.320Z,1.53
2017-12-15T10:31:12.738Z,1.63
2017-12-15T10:33:40.170Z,3.00
2017-12-15T10:36:07.578Z,2.17
2017-12-15T10:38:35.002Z,2.00
2017-12-15T10:41:02.418Z,2.60
2017-12-15T10:43:29.853Z,2.80
2017-12-15T10:45:58.045Z,2.57
2017-12-15T10:48:25.622Z,1.63
2017-12-15T10:50:53.083Z,1.37
2017-12-15T10:53:21.274Z,1.70
2017-12-15T10:55:48.704Z,1.43
2017-12-15T10:58:17.004Z,1.63
2017-12-15T11:00:44.482Z,1.43
2017-12-15T11:03:11.910Z,1.33
2017-12-15T11:05:39.488Z,2.27
2017-12-15T11:08:06.956Z,1.30
2017-12-15T11:10:34.363Z,2.00
2017-12-15T11:13:01.792Z,2.27
2017-12-15T11:15:29.206Z,1.60
2017-12-15T11:17:57.446Z,1.27
2017-12-15T11:20:24.886Z,0.93
2017-12-15T11:22:52.366Z,1.53
2017-12-15T11:25:19.772Z,1.60
2017-12-15T11:27:47.980Z,0.90
2017-12-15T11:30:15.446Z,1.73
2017-12-15T11:32:42.893Z,1.27
2017-12-15T11:35:10.330Z,1.37
2017-12-15T11:37:38.522Z,1.33
2017-12-15T11:40:05.940Z,1.63
2017-12-15T11:42:33.370Z,2.00
2017-12-15T11:45:00.890Z,2.27
2017-12-15T11:47:29.073Z,1.47
2017-12-15T11:49:56.555Z,1.60
2017-12-15T11:52:24.040Z,0.90
2017-12-15T11:54:51.496Z,1.93
2017-12-15T11:57:18.958Z,2.17
2017-12-15T11:59:46.426Z,1.07
2017-12-15T12:02:13.914Z,2.40
2017-12-15T12:04:41.456Z,1.80
2017-12-15T12:07:08.898Z,1.40
2017-12-15T12:09:36.362Z,1.87
2017-12-15T12:12:03.777Z,2.47
2017-12-15T12:14:31.990Z,1.50
2017-12-15T12:16:59.414Z,2.07
2017-12-15T12:19:27.642Z,1.20
2017-12-15T12:21:55.082Z,1.80
2017-12-15T12:24:22.514Z,1.50
2017-12-15T12:26:50.730Z,1.80
2017-12-15T12:29:18.196Z,1.60
2017-12-15T12:31:45.633Z,1.10
2017-12-15T12:34:13.823Z,1.60
2017-12-15T12:36:41.242Z,1.40
2017-12-15T12:39:08.758Z,1.60
2017-12-15T12:41:36.183Z,1.70
2017-12-15T12:44:04.390Z,2.67
2017-12-15T12:46:31.814Z,1.63
2017-12-15T12:49:00.044Z,1.43
2017-12-15T12:51:27.458Z,2.20
2017-12-15T12:53:55.694Z,1.27
2017-12-15T12:56:23.127Z,1.77
2017-12-15T12:58:50.605Z,1.67
2017-12-15T13:01:18.025Z,1.63
2017-12-15T13:03:46.245Z,2.60
2017-12-15T13:06:13.702Z,1.33
2017-12-15T13:08:41.131Z,2.13
2017-12-15T13:11:09.318Z,3.00
2017-12-15T13:13:36.742Z,2.10
2017-12-15T13:16:04.325Z,2.07
2017-12-15T13:18:31.727Z,2.20
2017-12-15T13:20:59.183Z,1.80
2017-12-15T13:23:26.657Z,1.70
2017-12-15T13:25:54.078Z,1.27
2017-12-15T13:28:21.531Z,2.00
2017-12-15T13:30:49.758Z,2.13
2017-12-15T13:33:17.189Z,1.60
2017-12-15T13:35:44.618Z,1.27
2017-12-15T13:38:12.134Z,2.20
2017-12-15T13:40:39.561Z,1.73
2017-12-15T13:43:06.982Z,1.13
2017-12-15T13:45:34.430Z,1.20
2017-12-15T13:48:01.854Z,1.97
2017-12-15T13:50:29.301Z,1.43
2017-12-15T13:52:57.485Z,1.37
2017-12-15T13:55:24.978Z,1.40
2017-12-15T13:57:52.433Z,1.97
2017-12-15T14:00:19.865Z,1.53
2017-12-15T14:02:48.052Z,1.80
2017-12-15T14:05:15.484Z,2.43
2017-12-15T14:07:42.907Z,2.97
2017-12-15T14:10:10.353Z,2.67
2017-12-15T14:12:37.814Z,2.43
2017-12-15T14:15:05.278Z,1.30
2017-12-15T14:17:32.738Z,1.30
2017-12-15T14:20:00.262Z,1.47
2017-12-15T14:22:27.618Z,1.50
2017-12-15T14:24:55.814Z,1.93
2017-12-15T14:27:23.238Z,1.03
2017-12-15T14:29:50.806Z,1.20
2017-12-15T14:32:18.239Z,1.17
2017-12-15T14:35:09.615Z,1.53
2017-12-15T14:37:38.143Z,1.17
2017-12-15T14:40:05.569Z,1.03
2017-12-15T14:42:32.994Z,1.43
2017-12-15T14:47:56.283Z,2.30
2017-12-15T14:50:23.867Z,1.23
2017-12-15T14:52:51.378Z,1.43
2017-12-15T14:55:28.999Z,1.33
2017-12-15T14:57:57.081Z,0.90
2017-12-15T15:00:24.564Z,1.40
2017-12-15T15:02:51.981Z,1.00
2017-12-15T15:05:20.173Z,2.40
2017-12-15T15:07:47.693Z,1.63
2017-12-15T15:10:15.225Z,1.43
2017-12-15T15:12:42.642Z,1.40
2017-12-15T15:15:10.871Z,1.50
2017-12-15T15:17:38.285Z,1.30
2017-12-15T15:20:06.476Z,1.33
2017-12-15T15:22:33.978Z,1.70
2017-12-15T15:25:01.416Z,2.00
2017-12-15T15:27:28.889Z,1.40
2017-12-15T15:29:56.321Z,1.10
2017-12-15T15:32:23.811Z,2.03
2017-12-15T15:34:51.282Z,1.50
2017-12-15T15:37:18.742Z,1.17
2017-12-15T15:39:46.193Z,2.10
2017-12-15T15:42:13.757Z,2.57
2017-12-15T15:44:41.226Z,1.50
2017-12-15T15:47:08.686Z,1.50
2017-12-15T15:49:36.151Z,2.00
2017-12-15T15:52:03.608Z,1.47
2017-12-15T15:54:31.026Z,1.70
2017-12-15T15:56:59.213Z,2.20
2017-12-15T15:59:27.412Z,2.20
2017-12-15T16:01:54.838Z,1.37
2017-12-15T16:04:23.037Z,1.17
2017-12-15T16:06:50.553Z,1.63
2017-12-15T16:09:17.981Z,1.47
2017-12-15T16:11:45.441Z,1.03
2017-12-15T16:14:12.871Z,1.67
2017-12-15T16:16:41.093Z,0.80
2017-12-15T16:19:08.514Z,1.07
2017-12-15T16:21:36.701Z,1.70
2017-12-15T16:24:04.177Z,3.00
2017-12-15T16:26:31.634Z,2.20
2017-12-15T16:28:59.039Z,1.60
2017-12-15T16:31:26.565Z,1.70
2017-12-15T16:33:53.986Z,1.83
2017-12-15T16:36:22.180Z,2.50
2017-12-15T16:38:49.613Z,1.40
2017-12-15T16:41:17.143Z,3.50
2017-12-15T16:43:44.558Z,2.20
2017-12-15T16:46:12.062Z,2.10
2017-12-15T16:48:39.526Z,2.67
2017-12-15T16:51:06.985Z,3.33
2017-12-15T16:53:34.414Z,2.07
2017-12-15T16:56:01.898Z,2.00
2017-12-15T16:58:29.322Z,2.37
2017-12-15T17:00:57.537Z,2.10
2017-12-15T17:03:25.004Z,2.77
2017-12-15T17:05:52.434Z,2.10
2017-12-15T17:08:19.917Z,3.90
2017-12-15T17:10:47.377Z,2.30
2017-12-15T17:13:14.802Z,1.80
2017-12-15T17:15:42.998Z,2.60
2017-12-15T17:18:10.446Z,3.30
2017-12-15T17:20:38.646Z,2.63
2017-12-15T17:23:06.072Z,3.33
2017-12-15T17:25:34.314Z,2.50
2017-12-15T17:28:01.747Z,2.47
2017-12-15T17:30:29.230Z,2.40
2017-12-15T17:32:56.649Z,3.43
2017-12-15T17:35:24.834Z,2.70
2017-12-15T17:37:52.298Z,3.07
2017-12-15T17:40:19.797Z,3.20
2017-12-15T17:42:47.258Z,2.83
2017-12-15T17:45:14.669Z,3.00
2017-12-15T17:47:42.866Z,3.80
2017-12-15T17:50:10.328Z,3.07
2017-12-15T17:52:37.713Z,2.53
2017-12-15T17:55:05.161Z,2.03
2017-12-15T17:57:32.634Z,2.70
2017-12-15T18:00:00.053Z,3.63
2017-12-15T18:02:28.250Z,3.60
2017-12-15T18:04:55.734Z,2.77
2017-12-15T18:07:23.165Z,4.20
2017-12-15T18:09:50.593Z,3.00
2017-12-15T18:12:18.017Z,2.50
2017-12-15T18:14:45.437Z,2.63
2017-12-15T18:17:12.926Z,2.00
2017-12-15T18:19:40.397Z,2.23
2017-12-15T18:22:07.853Z,3.30
2017-12-15T18:24:35.284Z,3.63
2017-12-15T18:27:02.803Z,3.00
2017-12-15T18:29:30.234Z,2.30
2017-12-15T18:31:57.725Z,2.40
2017-12-15T18:34:28.280Z,3.10
2017-12-15T18:36:56.730Z,4.00
2017-12-15T18:39:24.153Z,3.33
2017-12-15T18:41:51.656Z,3.70
2017-12-15T18:44:19.106Z,2.60
2017-12-15T18:46:46.653Z,2.60
2017-12-15T18:49:14.121Z,3.03
2017-12-15T18:51:41.680Z,3.43
2017-12-15T18:54:09.078Z,3.07
2017-12-15T18:56:36.618Z,2.93
2017-12-15T18:59:04.029Z,3.40
2017-12-15T19:01:32.266Z,3.63
2017-12-15T19:03:59.690Z,2.70
2017-12-15T19:06:27.177Z,3.10
2017-12-15T19:08:54.653Z,4.00
2017-12-15T19:11:22.187Z,3.97
2017-12-15T19:13:50.373Z,2.50
2017-12-15T19:16:17.841Z,2.93
2017-12-15T19:18:45.281Z,3.23
2017-12-15T19:21:12.702Z,2.50
2017-12-15T19:23:40.145Z,3.50
2017-12-15T19:26:07.585Z,3.43
2017-12-15T19:28:35.005Z,3.07
2017-12-15T19:31:03.213Z,3.27
2017-12-15T19:33:30.671Z,5.10
2017-12-15T19:35:58.233Z,3.27
2017-12-15T19:38:25.636Z,3.93
2017-12-15T19:40:53.157Z,4.87
2017-12-15T19:43:20.630Z,3.53
2017-12-15T19:45:48.131Z,2.80
2017-12-15T19:48:15.757Z,4.13
2017-12-15T19:50:44.024Z,3.57
2017-12-15T19:53:12.217Z,3.53
2017-12-15T19:55:39.637Z,4.57
2017-12-15T19:58:07.842Z,4.13
2017-12-15T20:00:35.405Z,5.47
2017-12-15T20:03:02.862Z,4.17
2017-12-15T20:05:30.281Z,4.40
2017-12-15T20:07:57.701Z,5.40
2017-12-15T20:10:25.162Z,4.00
2017-12-15T20:12:52.586Z,4.13
2017-12-15T20:15:20.769Z,3.93
2017-12-15T20:17:48.202Z,6.20
2017-12-15T20:20:15.720Z,3.90
2017-12-15T20:22:43.158Z,5.27
2017-12-15T20:25:10.658Z,6.17
2017-12-15T20:27:38.138Z,5.20
2017-12-15T20:30:05.543Z,4.50
2017-12-15T20:32:33.038Z,3.60
2017-12-15T20:35:00.459Z,5.87
2017-12-15T20:37:27.959Z,4.00
2017-12-15T20:39:55.383Z,6.60
2017-12-15T20:42:23.578Z,5.30
2017-12-15T20:44:51.040Z,4.93
2017-12-15T20:47:18.461Z,4.80
2017-12-15T20:49:46.782Z,6.03
2017-12-15T20:52:14.192Z,3.67
2017-12-15T20:54:41.709Z,5.17
2017-12-15T20:57:09.132Z,5.27
2017-12-15T20:59:37.368Z,7.70
2017-12-15T21:02:04.865Z,5.43
2017-12-15T21:04:33.073Z,6.00
2017-12-15T21:07:01.262Z,6.83
2017-12-15T21:09:28.741Z,7.77
2017-12-15T21:11:56.236Z,4.67
2017-12-15T21:14:23.654Z,4.53
2017-12-15T21:16:51.078Z,3.83
2017-12-15T21:19:19.389Z,4.77
2017-12-15T21:21:46.849Z,6.23
2017-12-15T21:24:14.287Z,6.50
2017-12-15T21:26:42.504Z,4.50
2017-12-15T21:29:09.964Z,5.10
2017-12-15T21:31:37.393Z,3.87
2017-12-15T21:34:05.600Z,6.83
2017-12-15T21:36:33.042Z,5.93
2017-12-15T21:39:00.511Z,4.27
2017-12-15T21:41:27.915Z,4.07
2017-12-15T21:43:55.460Z,4.33
2017-12-15T21:46:22.873Z,3.50
2017-12-15T21:48:50.373Z,6.40
2017-12-15T21:51:17.811Z,4.87
2017-12-15T21:53:45.985Z,5.27
2017-12-15T21:56:13.409Z,6.73
2017-12-15T21:58:40.840Z,4.37
2017-12-15T22:01:08.305Z,5.07
2017-12-15T22:03:35.749Z,5.57
2017-12-15T22:06:03.217Z,3.40
2017-12-15T22:08:30.686Z,6.30
2017-12-15T22:10:58.129Z,4.60
2017-12-15T22:13:25.589Z,5.27
2017-12-15T22:15:53.047Z,5.33
2017-12-15T22:18:20.728Z,5.03
2017-12-15T22:20:48.190Z,6.13
2017-12-15T22:23:15.646Z,4.40
2017-12-15T22:25:43.109Z,5.23
2017-12-15T22:28:10.544Z,5.77
2017-12-15T22:30:38.753Z,7.73
2017-12-15T22:33:06.299Z,4.27
2017-12-15T22:35:33.712Z,4.93
2017-12-15T22:38:02.639Z,5.10
2017-12-15T22:40:30.131Z,7.23
2017-12-15T22:42:57.543Z,5.23
2017-12-15T22:45:25.737Z,5.47
2017-12-15T22:47:53.288Z,6.67
2017-12-15T22:50:20.659Z,5.50
2017-12-15T22:52:48.145Z,6.10
2017-12-15T22:55:15.651Z,7.60
2017-12-15T22:57:43.077Z,4.80
2017-12-15T23:00:10.505Z,5.50
2017-12-15T23:02:38.002Z,6.93
2017-12-15T23:05:05.462Z,6.57
2017-12-15T23:07:32.922Z,7.30
2017-12-15T23:10:00.377Z,5.83
2017-12-15T23:12:27.793Z,6.47
2017-12-15T23:14:56.016Z,6.50
2017-12-15T23:17:23.481Z,6.73
2017-12-15T23:19:50.953Z,7.03
2017-12-15T23:22:18.406Z,7.33
2017-12-15T23:24:45.877Z,6.93
2017-12-15T23:27:13.298Z,6.47
2017-12-15T23:29:41.502Z,5.70
2017-12-15T23:32:08.929Z,8.30
2017-12-15T23:34:36.802Z,7.63
2017-12-15T23:37:04.300Z,7.97
2017-12-15T23:39:31.755Z,7.33
2017-12-15T23:41:59.172Z,7.40
2017-12-15T23:44:27.397Z,7.80
2017-12-15T23:46:54.865Z,6.50
2017-12-15T23:49:22.323Z,7.00
2017-12-15T23:51:49.741Z,6.87
2017-12-15T23:54:29.828Z,7.83
2017-12-15T23:57:01.995Z,7.43
2017-12-15T23:59:29.466Z,6.97
